Time;durP1;ratioP1;P1;durP2;ratioP2;P2;SDS_P1;SDS_P2;PMS_P1;PMS_P2;Temp;Humidity;BMP_temperature;BMP_pressure;BME280_temperature;BME280_humidity;BME280_pressure;Samples;Min_cycle;Max_cycle;Signal;HPM_P1;HPM_P2
2023/08/03 00:01:21;;;;;;;;;;;19.10;88.60;;;;;;4979641;28;20311;-78
2023/08/03 00:03:47;;;;;;;;;;;19.10;88.60;;;;;;4982076;28;20029;-78
2023/08/03 00:06:14;;;;;;;;;;;19.10;88.80;;;;;;4981954;28;19934;-77
2023/08/03 00:08:41;;;;;;;;;;;19.10;88.80;;;;;;4984721;28;19940;-77
2023/08/03 00:11:07;;;;;;;;;;;19.10;88.70;;;;;;4982834;28;19930;-77
2023/08/03 00:13:35;;;;;;;;;;;19.10;88.30;;;;;;4982685;28;19929;-78
2023/08/03 00:16:02;;;;;;;;;;;19.10;88.20;;;;;;4983570;28;19934;-78
2023/08/03 00:18:28;;;;;;;;;;;19.00;87.90;;;;;;4980887;28;19934;-77
2023/08/03 00:20:55;;;;;;;;;;;19.10;88.10;;;;;;4978607;28;19937;-77
2023/08/03 00:23:22;;;;;;;;;;;19.10;88.30;;;;;;4979279;28;20388;-78
2023/08/03 00:25:48;;;;;;;;;;;19.00;87.90;;;;;;4982690;28;19930;-78
2023/08/03 00:28:15;;;;;;;;;;;19.00;87.60;;;;;;4982080;28;20403;-78
2023/08/03 00:30:43;;;;;;;;;;;19.00;87.40;;;;;;4982935;28;19936;-76
2023/08/03 00:33:09;;;;;;;;;;;19.00;87.40;;;;;;4994148;28;19929;-76
2023/08/03 00:35:36;;;;;;;;;;;19.00;87.10;;;;;;5003535;28;19946;-79
2023/08/03 00:38:02;;;;;;;;;;;19.00;86.80;;;;;;5001402;28;19929;-77
2023/08/03 00:40:29;;;;;;;;;;;19.00;86.90;;;;;;4979246;28;19929;-77
2023/08/03 00:42:57;;;;;;;;;;;19.00;87.00;;;;;;4985413;28;19926;-80
2023/08/03 00:45:24;;;;;;;;;;;19.00;86.90;;;;;;4981647;28;19933;-77
2023/08/03 00:47:52;;;;;;;;;;;19.00;86.60;;;;;;4981893;28;19933;-79
2023/08/03 00:50:19;;;;;;;;;;;19.00;86.40;;;;;;4982446;28;19933;-80
2023/08/03 00:52:45;;;;;;;;;;;19.00;86.40;;;;;;4982103;28;20044;-79
2023/08/03 00:55:12;;;;;;;;;;;19.00;86.50;;;;;;4984659;28;19932;-77
2023/08/03 00:57:38;;;;;;;;;;;19.00;86.40;;;;;;4980830;28;19937;-80
2023/08/03 01:00:06;;;;;;;;;;;19.00;85.80;;;;;;4980420;28;19934;-78
2023/08/03 01:02:33;;;;;;;;;;;19.00;85.80;;;;;;4987014;28;20690;-78
2023/08/03 01:05:00;;;;;;;;;;;19.00;85.90;;;;;;4990245;28;20432;-78
2023/08/03 01:07:27;;;;;;;;;;;19.00;86.00;;;;;;4985246;28;20591;-79
2023/08/03 01:09:54;;;;;;;;;;;19.00;86.00;;;;;;4987145;28;19933;-79
2023/08/03 01:12:20;;;;;;;;;;;19.00;85.80;;;;;;4983470;28;20123;-77
2023/08/03 01:14:47;;;;;;;;;;;18.90;85.50;;;;;;4986307;28;19954;-80
2023/08/03 01:17:13;;;;;;;;;;;19.00;85.40;;;;;;4999141;28;19929;-75
2023/08/03 01:19:40;;;;;;;;;;;19.00;84.90;;;;;;5002515;28;19952;-78
2023/08/03 01:22:10;;;;;;;;;;;19.00;84.70;;;;;;5005050;28;19935;-78
2023/08/03 01:24:38;;;;;;;;;;;18.90;84.50;;;;;;5003161;28;20398;-79
2023/08/03 01:27:06;;;;;;;;;;;19.00;84.60;;;;;;5000427;28;20678;-79
2023/08/03 01:29:33;;;;;;;;;;;18.90;84.10;;;;;;5000623;28;19936;-80
2023/08/03 01:32:00;;;;;;;;;;;19.00;84.00;;;;;;4998399;28;19948;-77
2023/08/03 01:34:27;;;;;;;;;;;18.90;83.90;;;;;;5001331;28;19930;-78
2023/08/03 01:36:54;;;;;;;;;;;18.90;83.50;;;;;;5003872;28;19952;-80
2023/08/03 01:39:21;;;;;;;;;;;18.90;83.30;;;;;;5007626;28;19929;-78
2023/08/03 01:41:49;;;;;;;;;;;18.90;83.60;;;;;;5007275;28;19933;-78
2023/08/03 01:44:23;;;;;;;;;;;18.90;83.10;;;;;;5004718;28;20406;-77
2023/08/03 01:46:50;;;;;;;;;;;18.90;82.90;;;;;;5001433;28;19932;-77
2023/08/03 01:49:16;;;;;;;;;;;18.90;83.20;;;;;;5000756;28;20470;-78
2023/08/03 01:51:43;;;;;;;;;;;18.90;83.10;;;;;;5002610;28;19929;-80
2023/08/03 01:54:11;;;;;;;;;;;18.90;83.20;;;;;;5000827;28;20020;-79
2023/08/03 01:56:37;;;;;;;;;;;18.90;83.00;;;;;;5003774;28;19929;-79
2023/08/03 01:59:06;;;;;;;;;;;18.90;83.10;;;;;;5004875;28;19929;-82
2023/08/03 02:01:32;;;;;;;;;;;18.90;83.10;;;;;;5002477;28;20399;-80
2023/08/03 02:03:59;;;;;;;;;;;18.90;82.90;;;;;;5008424;28;21939;-79
2023/08/03 02:06:25;;;;;;;;;;;18.90;82.90;;;;;;5002512;28;20304;-79
2023/08/03 02:08:52;;;;;;;;;;;18.90;83.00;;;;;;5009183;28;19955;-78
2023/08/03 02:11:19;;;;;;;;;;;18.90;83.40;;;;;;5006445;28;19929;-79
2023/08/03 02:13:46;;;;;;;;;;;18.90;82.40;;;;;;5007766;28;21508;-80
2023/08/03 02:16:14;;;;;;;;;;;18.90;82.60;;;;;;5005489;28;20383;-80
2023/08/03 02:18:41;;;;;;;;;;;18.90;82.70;;;;;;5011863;28;19934;-79
2023/08/03 02:21:08;;;;;;;;;;;18.90;82.80;;;;;;5004662;28;19929;-78
2023/08/03 02:23:34;;;;;;;;;;;18.90;82.90;;;;;;5011095;28;19936;-80
2023/08/03 02:26:02;;;;;;;;;;;18.90;82.70;;;;;;5008614;28;19929;-80
2023/08/03 02:28:29;;;;;;;;;;;18.90;82.70;;;;;;5014061;28;19939;-80
2023/08/03 02:30:55;;;;;;;;;;;18.90;82.70;;;;;;5014640;28;19937;-79
2023/08/03 02:33:23;;;;;;;;;;;18.90;82.20;;;;;;5010212;28;20604;-79
2023/08/03 02:35:50;;;;;;;;;;;18.80;82.00;;;;;;5014492;28;19940;-77
2023/08/03 02:38:16;;;;;;;;;;;18.90;82.00;;;;;;5005780;28;19933;-80
2023/08/03 02:40:43;;;;;;;;;;;18.80;82.00;;;;;;5006148;28;19940;-80
2023/08/03 02:43:09;;;;;;;;;;;18.90;81.90;;;;;;5006373;28;19960;-78
2023/08/03 02:45:36;;;;;;;;;;;18.80;81.90;;;;;;5002522;28;19933;-78
2023/08/03 02:48:03;;;;;;;;;;;18.80;81.80;;;;;;5006877;28;19933;-77
2023/08/03 02:50:31;;;;;;;;;;;18.80;81.70;;;;;;5005447;28;19940;-78
2023/08/03 02:52:57;;;;;;;;;;;18.80;81.70;;;;;;5003093;28;19936;-76
2023/08/03 02:55:24;;;;;;;;;;;18.80;81.70;;;;;;5002216;28;19936;-76
2023/08/03 02:57:50;;;;;;;;;;;18.80;82.00;;;;;;5003936;28;19940;-79
2023/08/03 03:00:17;;;;;;;;;;;18.80;82.10;;;;;;5003913;28;19934;-79
2023/08/03 03:02:44;;;;;;;;;;;18.80;82.40;;;;;;5003678;28;19961;-79
2023/08/03 03:05:10;;;;;;;;;;;18.70;82.40;;;;;;5002426;28;19930;-79
2023/08/03 03:07:38;;;;;;;;;;;18.60;82.50;;;;;;5001612;28;19929;-78
2023/08/03 03:10:05;;;;;;;;;;;18.70;82.80;;;;;;5002928;28;19937;-79
2023/08/03 03:12:32;;;;;;;;;;;18.70;83.10;;;;;;5000833;28;19941;-78
2023/08/03 03:14:58;;;;;;;;;;;18.70;83.40;;;;;;5001332;28;19929;-79
2023/08/03 03:17:25;;;;;;;;;;;18.70;83.50;;;;;;5000928;28;19929;-79
2023/08/03 03:19:51;;;;;;;;;;;18.70;83.60;;;;;;5001502;28;19936;-79
2023/08/03 03:22:18;;;;;;;;;;;18.70;83.80;;;;;;5000497;28;19930;-83
2023/08/03 03:24:46;;;;;;;;;;;18.70;83.90;;;;;;5003554;28;20292;-78
2023/08/03 03:27:12;;;;;;;;;;;18.60;83.90;;;;;;5000942;28;20292;-78
2023/08/03 03:29:39;;;;;;;;;;;18.60;83.90;;;;;;4999992;28;19929;-79
2023/08/03 03:32:06;;;;;;;;;;;18.60;84.00;;;;;;5001380;28;20767;-78
2023/08/03 03:34:32;;;;;;;;;;;18.60;84.10;;;;;;5004483;28;19944;-81
2023/08/03 03:36:59;;;;;;;;;;;18.60;84.20;;;;;;5000414;28;19930;-81
2023/08/03 03:39:25;;;;;;;;;;;18.60;84.30;;;;;;5003076;28;19930;-78
2023/08/03 03:41:53;;;;;;;;;;;18.60;84.40;;;;;;5001379;28;19944;-80
2023/08/03 03:44:20;;;;;;;;;;;18.50;84.30;;;;;;5001630;28;19937;-79
2023/08/03 03:46:46;;;;;;;;;;;18.50;84.40;;;;;;5001784;28;19933;-79
2023/08/03 03:49:13;;;;;;;;;;;18.50;84.50;;;;;;5003748;28;20018;-78
2023/08/03 03:51:39;;;;;;;;;;;18.50;84.70;;;;;;5000669;28;20445;-82
2023/08/03 03:54:06;;;;;;;;;;;18.50;84.70;;;;;;5004955;28;20380;-79
2023/08/03 03:56:32;;;;;;;;;;;18.50;84.80;;;;;;5003056;28;19937;-78
2023/08/03 03:59:00;;;;;;;;;;;18.50;85.00;;;;;;5001969;28;20399;-80
2023/08/03 04:01:27;;;;;;;;;;;18.40;84.80;;;;;;4996467;28;19930;-79
2023/08/03 04:03:53;;;;;;;;;;;18.50;85.00;;;;;;4997927;28;19936;-80
2023/08/03 04:06:20;;;;;;;;;;;18.40;85.00;;;;;;4996902;28;19930;-79
2023/08/03 04:08:46;;;;;;;;;;;18.40;84.90;;;;;;5004891;28;19939;-80
2023/08/03 04:11:13;;;;;;;;;;;18.40;85.00;;;;;;5000352;28;19940;-78
2023/08/03 04:13:39;;;;;;;;;;;18.40;84.90;;;;;;5000885;28;19925;-79
2023/08/03 04:16:07;;;;;;;;;;;18.30;84.80;;;;;;5004720;28;19961;-80
2023/08/03 04:18:35;;;;;;;;;;;18.30;85.50;;;;;;5001598;28;19930;-79
2023/08/03 04:21:02;;;;;;;;;;;18.30;84.90;;;;;;5000481;28;19929;-80
2023/08/03 04:23:28;;;;;;;;;;;18.30;84.90;;;;;;5004351;28;19968;-77
2023/08/03 04:25:55;;;;;;;;;;;18.40;85.00;;;;;;5003528;28;19929;-79
2023/08/03 04:28:21;;;;;;;;;;;18.30;84.90;;;;;;5003491;28;19932;-78
2023/08/03 04:30:48;;;;;;;;;;;18.30;84.70;;;;;;5003800;28;19935;-77
2023/08/03 04:33:16;;;;;;;;;;;18.30;84.50;;;;;;5004657;28;19933;-77
2023/08/03 04:35:42;;;;;;;;;;;18.30;84.20;;;;;;5006265;28;19930;-77
2023/08/03 04:38:09;;;;;;;;;;;18.30;84.20;;;;;;5009253;28;19933;-79
2023/08/03 04:40:35;;;;;;;;;;;18.30;83.80;;;;;;5010173;28;19929;-80
2023/08/03 04:43:02;;;;;;;;;;;18.30;83.90;;;;;;5006736;28;20027;-81
2023/08/03 04:45:29;;;;;;;;;;;18.30;84.10;;;;;;5008476;28;19965;-81
2023/08/03 04:47:55;;;;;;;;;;;18.30;84.20;;;;;;5004974;28;19930;-79
2023/08/03 04:50:23;;;;;;;;;;;18.30;84.30;;;;;;5006327;28;19929;-79
2023/08/03 04:52:50;;;;;;;;;;;18.30;84.40;;;;;;5005219;28;19944;-79
2023/08/03 04:55:16;;;;;;;;;;;18.30;84.40;;;;;;4999389;28;19929;-79
2023/08/03 04:57:43;;;;;;;;;;;18.20;84.00;;;;;;5000198;28;19933;-80
2023/08/03 05:00:10;;;;;;;;;;;18.30;84.30;;;;;;5001350;28;19952;-79
2023/08/03 05:02:36;;;;;;;;;;;18.30;84.20;;;;;;5001597;28;19930;-78
2023/08/03 05:05:03;;;;;;;;;;;18.20;84.20;;;;;;4999116;28;19933;-79
2023/08/03 05:07:31;;;;;;;;;;;18.20;84.30;;;;;;5002299;28;19980;-80
2023/08/03 05:09:57;;;;;;;;;;;18.20;84.40;;;;;;5001735;28;19933;-81
2023/08/03 05:12:24;;;;;;;;;;;18.20;84.50;;;;;;5007785;28;19936;-79
2023/08/03 05:14:50;;;;;;;;;;;18.20;84.50;;;;;;5004420;28;19933;-79
2023/08/03 05:17:17;;;;;;;;;;;18.20;84.40;;;;;;5005304;28;19944;-79
2023/08/03 05:19:43;;;;;;;;;;;18.20;84.40;;;;;;5001516;28;19933;-80
2023/08/03 05:22:10;;;;;;;;;;;18.20;84.30;;;;;;5003328;28;19929;-79
2023/08/03 05:24:38;;;;;;;;;;;18.20;84.50;;;;;;5008151;28;19933;-78
2023/08/03 05:27:05;;;;;;;;;;;18.20;84.60;;;;;;5004632;28;19936;-78
2023/08/03 05:29:31;;;;;;;;;;;18.20;84.60;;;;;;4996723;28;20014;-79
2023/08/03 05:31:58;;;;;;;;;;;18.20;84.50;;;;;;5002581;28;19930;-79
2023/08/03 05:34:25;;;;;;;;;;;18.20;84.60;;;;;;5004957;28;19937;-80
2023/08/03 05:36:51;;;;;;;;;;;18.20;84.60;;;;;;5006571;28;19933;-80
2023/08/03 05:39:18;;;;;;;;;;;18.20;84.60;;;;;;5004198;28;19933;-79
2023/08/03 05:41:46;;;;;;;;;;;18.20;84.60;;;;;;5007551;28;19929;-79
2023/08/03 05:44:13;;;;;;;;;;;18.20;84.70;;;;;;5007105;28;20556;-77
2023/08/03 05:46:40;;;;;;;;;;;18.20;84.70;;;;;;5004177;28;20437;-78
2023/08/03 05:49:08;;;;;;;;;;;18.20;84.70;;;;;;5002757;28;20418;-79
2023/08/03 05:51:34;;;;;;;;;;;18.20;84.80;;;;;;4998394;28;20433;-81
2023/08/03 05:54:01;;;;;;;;;;;18.20;84.80;;;;;;5000577;28;19941;-78
2023/08/03 05:56:27;;;;;;;;;;;18.20;84.80;;;;;;5008310;28;19952;-79
2023/08/03 05:58:55;;;;;;;;;;;18.20;84.80;;;;;;5005972;28;19926;-77
2023/08/03 06:01:22;;;;;;;;;;;18.20;85.00;;;;;;5003810;28;19999;-76
2023/08/03 06:03:48;;;;;;;;;;;18.20;85.00;;;;;;5006832;28;19934;-75
2023/08/03 06:06:16;;;;;;;;;;;18.20;84.90;;;;;;5003946;28;19945;-76
2023/08/03 06:08:46;;;;;;;;;;;18.20;84.90;;;;;;5003425;28;20007;-77
2023/08/03 06:11:13;;;;;;;;;;;18.20;85.00;;;;;;5006276;28;20040;-75
2023/08/03 06:13:40;;;;;;;;;;;18.20;85.10;;;;;;5004560;28;19933;-76
2023/08/03 06:16:09;;;;;;;;;;;18.20;85.20;;;;;;5005330;28;19930;-76
2023/08/03 06:18:42;;;;;;;;;;;18.20;85.40;;;;;;5004811;28;21216;-75
2023/08/03 06:21:09;;;;;;;;;;;18.20;85.50;;;;;;5005445;28;19940;-75
2023/08/03 06:23:39;;;;;;;;;;;18.20;85.90;;;;;;5005579;28;19930;-75
2023/08/03 06:26:11;;;;;;;;;;;18.10;85.70;;;;;;5007857;28;19929;-76
2023/08/03 06:28:38;;;;;;;;;;;18.20;85.80;;;;;;4999967;28;19929;-75
2023/08/03 06:31:12;;;;;;;;;;;18.20;86.00;;;;;;5004698;28;19937;-76
2023/08/03 06:33:40;;;;;;;;;;;18.20;86.10;;;;;;5005019;28;19929;-76
2023/08/03 06:36:08;;;;;;;;;;;18.10;86.10;;;;;;5001339;28;19937;-76
2023/08/03 06:38:36;;;;;;;;;;;18.20;86.20;;;;;;5006838;28;19929;-76
2023/08/03 06:41:03;;;;;;;;;;;18.10;86.10;;;;;;5006572;28;20438;-76
2023/08/03 06:43:30;;;;;;;;;;;18.20;86.10;;;;;;5002030;28;19933;-76
2023/08/03 06:45:56;;;;;;;;;;;18.10;86.10;;;;;;5002499;28;20447;-77
2023/08/03 06:48:23;;;;;;;;;;;18.10;86.00;;;;;;5008417;28;19940;-76
2023/08/03 06:50:51;;;;;;;;;;;18.10;86.00;;;;;;5001621;28;20440;-76
2023/08/03 06:53:18;;;;;;;;;;;18.10;86.00;;;;;;5001906;28;20482;-77
2023/08/03 06:55:48;;;;;;;;;;;18.10;85.80;;;;;;5003553;28;20383;-77
2023/08/03 06:58:14;;;;;;;;;;;18.10;85.80;;;;;;5001868;28;20696;-81
2023/08/03 07:00:41;;;;;;;;;;;18.10;85.70;;;;;;4998225;28;19941;-76
2023/08/03 07:03:08;;;;;;;;;;;18.10;85.70;;;;;;4997980;28;19938;-76
2023/08/03 07:05:34;;;;;;;;;;;18.10;85.50;;;;;;4998498;28;19933;-76
2023/08/03 07:08:02;;;;;;;;;;;18.10;85.50;;;;;;5002638;28;19925;-79
2023/08/03 07:10:30;;;;;;;;;;;18.10;85.30;;;;;;5001705;28;19929;-78
2023/08/03 07:12:56;;;;;;;;;;;18.10;85.00;;;;;;5002192;28;19964;-76
2023/08/03 07:15:23;;;;;;;;;;;18.10;85.00;;;;;;5001883;28;20570;-76
2023/08/03 07:17:49;;;;;;;;;;;18.00;84.90;;;;;;5002294;28;20488;-81
2023/08/03 07:20:17;;;;;;;;;;;18.10;85.00;;;;;;5001667;28;19925;-76
2023/08/03 07:22:45;;;;;;;;;;;18.00;84.60;;;;;;5004749;28;19933;-79
2023/08/03 07:25:13;;;;;;;;;;;18.10;84.90;;;;;;4997400;28;19933;-78
2023/08/03 07:27:41;;;;;;;;;;;18.10;84.30;;;;;;5003854;28;19930;-77
2023/08/03 07:30:09;;;;;;;;;;;18.10;84.40;;;;;;5000853;28;19987;-78
2023/08/03 07:32:35;;;;;;;;;;;18.10;84.10;;;;;;5001645;28;19929;-79
2023/08/03 07:35:02;;;;;;;;;;;18.00;83.70;;;;;;4995333;28;21247;-80
2023/08/03 07:37:29;;;;;;;;;;;18.10;83.80;;;;;;4994480;28;20036;-81
2023/08/03 07:39:55;;;;;;;;;;;18.10;83.80;;;;;;5001045;28;19936;-77
2023/08/03 07:42:23;;;;;;;;;;;18.10;83.70;;;;;;5002232;28;19936;-80
2023/08/03 07:44:52;;;;;;;;;;;18.00;83.60;;;;;;4998660;28;19933;-79
2023/08/03 07:47:18;;;;;;;;;;;18.00;84.30;;;;;;4995711;28;19939;-83
2023/08/03 07:49:44;;;;;;;;;;;18.10;83.60;;;;;;4996560;28;19933;-77
2023/08/03 07:52:10;;;;;;;;;;;18.10;83.50;;;;;;4997890;28;20643;-77
2023/08/03 07:54:37;;;;;;;;;;;18.00;83.40;;;;;;4995842;28;19956;-78
2023/08/03 07:57:04;;;;;;;;;;;18.00;83.50;;;;;;4996712;28;19941;-77
2023/08/03 07:59:32;;;;;;;;;;;18.10;83.50;;;;;;4998657;28;19934;-77
2023/08/03 08:01:59;;;;;;;;;;;18.10;83.40;;;;;;4996171;28;19940;-80
2023/08/03 08:04:26;;;;;;;;;;;18.10;83.40;;;;;;5002698;28;19976;-78
2023/08/03 08:06:53;;;;;;;;;;;18.10;83.20;;;;;;5003320;28;19940;-78
2023/08/03 08:09:19;;;;;;;;;;;18.00;83.10;;;;;;5004340;28;20024;-80
2023/08/03 08:11:46;;;;;;;;;;;18.10;83.10;;;;;;5003754;28;19930;-79
2023/08/03 08:14:13;;;;;;;;;;;18.10;83.10;;;;;;5002824;28;19930;-77
2023/08/03 08:16:41;;;;;;;;;;;18.10;83.20;;;;;;5002516;28;20532;-78
2023/08/03 08:19:08;;;;;;;;;;;18.10;83.40;;;;;;5001397;28;20560;-78
2023/08/03 08:21:34;;;;;;;;;;;18.10;83.50;;;;;;5002074;28;19945;-83
2023/08/03 08:24:01;;;;;;;;;;;18.10;83.80;;;;;;5002211;28;19944;-77
2023/08/03 08:26:28;;;;;;;;;;;18.10;84.00;;;;;;5001160;28;19937;-80
2023/08/03 08:28:56;;;;;;;;;;;18.10;84.00;;;;;;5002585;28;19934;-79
2023/08/03 08:31:23;;;;;;;;;;;18.10;83.80;;;;;;5001058;28;19933;-78
2023/08/03 08:33:51;;;;;;;;;;;18.10;83.60;;;;;;5004233;28;19940;-80
2023/08/03 08:36:17;;;;;;;;;;;18.10;83.60;;;;;;4999776;28;19966;-78
2023/08/03 08:38:44;;;;;;;;;;;18.10;83.80;;;;;;5003689;28;19930;-73
2023/08/03 08:41:11;;;;;;;;;;;18.10;83.50;;;;;;5002068;28;19930;-78
2023/08/03 08:43:40;;;;;;;;;;;18.00;83.40;;;;;;5001707;28;19933;-82
2023/08/03 08:46:06;;;;;;;;;;;18.00;83.50;;;;;;5002000;28;19953;-78
2023/08/03 08:48:34;;;;;;;;;;;18.00;83.60;;;;;;5004030;28;19936;-76
2023/08/03 08:51:03;;;;;;;;;;;18.10;83.80;;;;;;5001674;28;20395;-76
2023/08/03 08:53:30;;;;;;;;;;;18.00;83.70;;;;;;5002666;28;19941;-81
2023/08/03 08:55:57;;;;;;;;;;;18.00;83.80;;;;;;5003246;28;20311;-76
2023/08/03 08:58:24;;;;;;;;;;;18.00;83.90;;;;;;5000307;28;19929;-79
2023/08/03 09:00:51;;;;;;;;;;;18.10;84.00;;;;;;4999717;28;19933;-79
2023/08/03 09:03:17;;;;;;;;;;;18.00;84.00;;;;;;5002915;28;20004;-78
2023/08/03 09:05:44;;;;;;;;;;;18.00;84.20;;;;;;5005139;28;20008;-77
2023/08/03 09:08:12;;;;;;;;;;;18.00;84.40;;;;;;5002033;28;19941;-83
2023/08/03 09:10:48;;;;;;;;;;;18.10;84.50;;;;;;5002708;28;20504;-80
2023/08/03 09:13:25;;;;;;;;;;;18.00;84.60;;;;;;4999359;28;19933;-78
2023/08/03 09:15:52;;;;;;;;;;;18.10;84.80;;;;;;4998961;28;19929;-78
2023/08/03 09:18:19;;;;;;;;;;;18.10;84.90;;;;;;5003150;28;19929;-77
2023/08/03 09:20:46;;;;;;;;;;;18.10;85.00;;;;;;5001915;28;19944;-79
2023/08/03 09:23:26;;;;;;;;;;;18.10;85.00;;;;;;5002273;28;19933;-76
2023/08/03 09:25:53;;;;;;;;;;;18.10;85.00;;;;;;5002580;28;19925;-76
2023/08/03 09:28:20;;;;;;;;;;;18.10;85.10;;;;;;5000872;28;19933;-79
2023/08/03 09:30:50;;;;;;;;;;;18.10;85.20;;;;;;5001596;28;19932;-77
2023/08/03 09:33:17;;;;;;;;;;;18.10;85.40;;;;;;4998984;28;19933;-76
2023/08/03 09:35:45;;;;;;;;;;;18.10;85.60;;;;;;5001926;28;19936;-75
2023/08/03 09:38:24;;;;;;;;;;;18.10;85.90;;;;;;5001891;28;20402;-78
2023/08/03 09:40:51;;;;;;;;;;;18.10;86.30;;;;;;5001557;28;19926;-78
2023/08/03 09:43:18;;;;;;;;;;;18.10;86.50;;;;;;5001565;28;20641;-76
2023/08/03 09:45:45;;;;;;;;;;;18.10;86.80;;;;;;5001893;28;21889;-78
2023/08/03 09:48:12;;;;;;;;;;;18.10;87.10;;;;;;5002467;28;19956;-76
2023/08/03 09:50:39;;;;;;;;;;;18.00;87.40;;;;;;4999182;28;19936;-77
2023/08/03 09:53:10;;;;;;;;;;;18.00;87.70;;;;;;5004305;28;19930;-77
2023/08/03 09:55:42;;;;;;;;;;;18.00;88.00;;;;;;5003042;28;19934;-76
2023/08/03 09:58:12;;;;;;;;;;;18.10;88.50;;;;;;5005661;28;19936;-76
2023/08/03 10:00:39;;;;;;;;;;;18.00;88.90;;;;;;5004910;28;19930;-78
2023/08/03 10:03:07;;;;;;;;;;;18.00;89.10;;;;;;5004147;28;19937;-79
2023/08/03 10:05:36;;;;;;;;;;;18.00;89.50;;;;;;5002804;28;19987;-79
2023/08/03 10:08:06;;;;;;;;;;;18.00;90.00;;;;;;5005342;28;19937;-76
2023/08/03 10:10:35;;;;;;;;;;;17.90;90.00;;;;;;5005246;28;19984;-76
2023/08/03 10:13:04;;;;;;;;;;;17.90;90.20;;;;;;5004702;28;19929;-77
2023/08/03 10:15:31;;;;;;;;;;;17.90;90.20;;;;;;5006230;28;19934;-76
2023/08/03 10:17:58;;;;;;;;;;;17.90;90.40;;;;;;5006735;28;19936;-76
2023/08/03 10:20:25;;;;;;;;;;;17.90;90.50;;;;;;5002281;28;19930;-78
2023/08/03 10:23:11;;;;;;;;;;;17.90;90.60;;;;;;5004368;28;19937;-77
2023/08/03 10:25:50;;;;;;;;;;;17.80;90.70;;;;;;5006375;28;20013;-76
2023/08/03 10:28:18;;;;;;;;;;;17.80;90.80;;;;;;5003906;28;19936;-75
2023/08/03 10:31:10;;;;;;;;;;;17.80;90.90;;;;;;5005482;28;19970;-76
2023/08/03 10:33:56;;;;;;;;;;;17.80;91.00;;;;;;5006046;28;20410;-79
2023/08/03 10:36:31;;;;;;;;;;;17.80;91.10;;;;;;5004766;28;19933;-76
2023/08/03 10:38:58;;;;;;;;;;;17.80;91.20;;;;;;5003543;28;19980;-77
2023/08/03 10:41:25;;;;;;;;;;;17.80;91.60;;;;;;5005187;28;19933;-75
2023/08/03 10:44:09;;;;;;;;;;;17.80;91.30;;;;;;5003669;28;19945;-76
2023/08/03 10:46:38;;;;;;;;;;;17.70;91.40;;;;;;5005090;28;20631;-79
2023/08/03 10:49:29;;;;;;;;;;;17.80;91.50;;;;;;5004583;28;19937;-75
2023/08/03 10:52:15;;;;;;;;;;;17.80;91.60;;;;;;5003741;28;19933;-77
2023/08/03 10:54:41;;;;;;;;;;;17.80;91.80;;;;;;5008189;28;19929;-76
2023/08/03 10:57:09;;;;;;;;;;;17.80;92.00;;;;;;5003756;28;19929;-78
2023/08/03 10:59:36;;;;;;;;;;;17.80;92.10;;;;;;5008314;28;19945;-75
2023/08/03 11:02:10;;;;;;;;;;;17.90;92.40;;;;;;5003087;28;19929;-78
2023/08/03 11:04:36;;;;;;;;;;;17.90;92.40;;;;;;5002768;28;19936;-75
2023/08/03 11:07:03;;;;;;;;;;;18.00;92.50;;;;;;5004563;28;19929;-77
2023/08/03 11:09:30;;;;;;;;;;;18.00;92.60;;;;;;5000680;28;19973;-77
2023/08/03 11:11:57;;;;;;;;;;;18.10;92.60;;;;;;5003051;28;20011;-76
2023/08/03 11:14:24;;;;;;;;;;;18.20;92.50;;;;;;5001861;28;19933;-77
2023/08/03 11:16:50;;;;;;;;;;;18.20;92.30;;;;;;5001640;28;19934;-77
2023/08/03 11:19:18;;;;;;;;;;;18.30;92.10;;;;;;5004868;28;19933;-75
2023/08/03 11:21:45;;;;;;;;;;;18.40;91.90;;;;;;5003298;28;19937;-76
2023/08/03 11:24:11;;;;;;;;;;;18.50;91.60;;;;;;5004397;28;20422;-76
2023/08/03 11:26:38;;;;;;;;;;;18.60;91.40;;;;;;5002961;28;19930;-76
2023/08/03 11:29:06;;;;;;;;;;;18.60;91.10;;;;;;5003021;28;20705;-75
2023/08/03 11:31:33;;;;;;;;;;;18.70;90.80;;;;;;5004541;28;19987;-76
2023/08/03 11:34:00;;;;;;;;;;;18.80;90.60;;;;;;4999490;28;19984;-78
2023/08/03 11:36:28;;;;;;;;;;;18.80;90.40;;;;;;5002670;28;20577;-76
2023/08/03 11:38:54;;;;;;;;;;;18.90;90.30;;;;;;5002720;28;20380;-76
2023/08/03 11:41:22;;;;;;;;;;;18.90;90.10;;;;;;5004080;28;19929;-77
2023/08/03 11:43:49;;;;;;;;;;;19.00;90.10;;;;;;5003413;28;19933;-76
2023/08/03 11:46:20;;;;;;;;;;;19.00;89.90;;;;;;4999456;28;20600;-78
2023/08/03 11:48:46;;;;;;;;;;;19.10;89.60;;;;;;4998914;28;19929;-77
2023/08/03 11:51:13;;;;;;;;;;;19.10;89.50;;;;;;5002373;28;19929;-77
2023/08/03 11:53:42;;;;;;;;;;;19.10;89.40;;;;;;5002452;28;19929;-75
2023/08/03 11:56:10;;;;;;;;;;;19.10;89.00;;;;;;5002183;28;19932;-78
2023/08/03 11:58:36;;;;;;;;;;;19.10;88.90;;;;;;5001913;28;20272;-81
2023/08/03 12:01:03;;;;;;;;;;;19.10;88.70;;;;;;4999626;28;19922;-80
2023/08/03 12:03:31;;;;;;;;;;;19.10;88.30;;;;;;4996743;28;19936;-79
2023/08/03 12:06:00;;;;;;;;;;;19.20;88.50;;;;;;5001770;28;20003;-80
2023/08/03 12:08:27;;;;;;;;;;;19.20;88.40;;;;;;5005437;28;20394;-80
2023/08/03 12:10:59;;;;;;;;;;;19.20;88.20;;;;;;5009214;28;19937;-80
2023/08/03 12:13:25;;;;;;;;;;;19.30;88.10;;;;;;4998593;28;19929;-80
2023/08/03 12:15:52;;;;;;;;;;;19.30;87.80;;;;;;5003973;28;19933;-79
2023/08/03 12:18:18;;;;;;;;;;;19.40;87.70;;;;;;5004997;28;19929;-80
2023/08/03 12:20:45;;;;;;;;;;;19.50;87.60;;;;;;4990907;28;19933;-76
2023/08/03 12:23:11;;;;;;;;;;;19.50;87.10;;;;;;5002840;28;20503;-75
2023/08/03 12:25:38;;;;;;;;;;;19.50;86.60;;;;;;4996669;28;20580;-74
2023/08/03 12:28:06;;;;;;;;;;;19.60;86.30;;;;;;5002250;28;19929;-76
2023/08/03 12:30:33;;;;;;;;;;;19.70;86.30;;;;;;4999276;28;19937;-75
2023/08/03 12:32:59;;;;;;;;;;;19.70;86.00;;;;;;5001201;28;19933;-76
2023/08/03 12:35:27;;;;;;;;;;;19.80;85.30;;;;;;5000141;28;19930;-79
2023/08/03 12:37:53;;;;;;;;;;;19.80;84.90;;;;;;5001232;28;19951;-78
2023/08/03 12:40:20;;;;;;;;;;;19.90;84.60;;;;;;4997392;28;19929;-77
2023/08/03 12:42:46;;;;;;;;;;;19.90;84.40;;;;;;4992340;28;19936;-76
2023/08/03 12:45:14;;;;;;;;;;;20.00;84.50;;;;;;5008053;28;19936;-79
2023/08/03 12:47:41;;;;;;;;;;;20.10;84.30;;;;;;5008332;28;19940;-76
2023/08/03 12:50:08;;;;;;;;;;;20.10;84.00;;;;;;5002489;28;19929;-76
2023/08/03 12:52:34;;;;;;;;;;;20.20;83.90;;;;;;5001567;28;19936;-77
2023/08/03 12:55:01;;;;;;;;;;;20.20;83.80;;;;;;5005826;28;19925;-76
2023/08/03 12:57:27;;;;;;;;;;;20.30;82.60;;;;;;5003637;28;19929;-77
2023/08/03 12:59:54;;;;;;;;;;;20.40;82.30;;;;;;5002780;28;19929;-77
2023/08/03 13:02:22;;;;;;;;;;;20.40;81.80;;;;;;5000283;28;19960;-77
2023/08/03 13:04:52;;;;;;;;;;;20.50;81.70;;;;;;5001651;28;19936;-77
2023/08/03 13:07:18;;;;;;;;;;;20.50;81.80;;;;;;5005700;28;19933;-77
2023/08/03 13:09:45;;;;;;;;;;;20.50;81.60;;;;;;5001306;28;19936;-76
2023/08/03 13:12:14;;;;;;;;;;;20.60;81.50;;;;;;4999531;28;19935;-78
2023/08/03 13:14:41;;;;;;;;;;;20.70;80.80;;;;;;4993656;28;20391;-77
2023/08/03 13:17:07;;;;;;;;;;;20.70;80.90;;;;;;4996420;28;19936;-77
2023/08/03 13:19:35;;;;;;;;;;;20.70;80.90;;;;;;4999210;28;19984;-80
2023/08/03 13:22:02;;;;;;;;;;;20.70;81.10;;;;;;5001680;28;19936;-76
2023/08/03 13:24:28;;;;;;;;;;;20.70;80.20;;;;;;5001334;28;20541;-78
2023/08/03 13:27:10;;;;;;;;;;;20.80;79.70;;;;;;5003988;28;20272;-79
2023/08/03 13:29:36;;;;;;;;;;;20.80;79.90;;;;;;5000822;28;19937;-78
2023/08/03 13:32:03;;;;;;;;;;;20.80;79.90;;;;;;5003458;28;19930;-78
2023/08/03 13:34:30;;;;;;;;;;;20.90;79.50;;;;;;5003989;28;19930;-77
2023/08/03 13:36:57;;;;;;;;;;;20.90;79.60;;;;;;5007352;28;19934;-78
2023/08/03 13:39:24;;;;;;;;;;;21.00;79.60;;;;;;5006657;28;19936;-77
2023/08/03 13:41:51;;;;;;;;;;;21.00;79.60;;;;;;5006976;28;19933;-78
2023/08/03 13:44:17;;;;;;;;;;;21.00;79.20;;;;;;5005088;28;21735;-78
2023/08/03 13:46:44;;;;;;;;;;;21.10;78.80;;;;;;5004372;28;19944;-79
2023/08/03 13:49:10;;;;;;;;;;;21.10;77.90;;;;;;5004748;28;19936;-80
2023/08/03 13:51:37;;;;;;;;;;;21.10;77.60;;;;;;5002465;28;19929;-78
2023/08/03 13:54:05;;;;;;;;;;;21.20;77.20;;;;;;5006046;28;19934;-78
2023/08/03 13:56:32;;;;;;;;;;;21.20;77.20;;;;;;5005493;28;19930;-78
2023/08/03 13:58:58;;;;;;;;;;;21.30;77.20;;;;;;5004845;28;19929;-78
2023/08/03 14:01:25;;;;;;;;;;;21.30;77.20;;;;;;5002012;28;19962;-78
2023/08/03 14:03:54;;;;;;;;;;;21.40;77.00;;;;;;5007082;28;19936;-78
2023/08/03 14:06:21;;;;;;;;;;;21.40;76.90;;;;;;5003166;28;20125;-78
2023/08/03 14:08:47;;;;;;;;;;;21.50;77.10;;;;;;5007303;28;19929;-79
2023/08/03 14:11:15;;;;;;;;;;;21.60;76.40;;;;;;5004768;28;19941;-78
2023/08/03 14:13:42;;;;;;;;;;;21.60;76.30;;;;;;5006737;28;19936;-79
2023/08/03 14:16:09;;;;;;;;;;;21.60;76.60;;;;;;5004716;28;19925;-79
2023/08/03 14:18:36;;;;;;;;;;;21.70;76.70;;;;;;5000867;28;20673;-78